Time;durP1;ratioP1;P1;durP2;ratioP2;P2;SDS_P1;SDS_P2;PMS_P1;PMS_P2;Temp;Humidity;BMP_temperature;BMP_pressure;BME280_temperature;BME280_humidity;BME280_pressure;Samples;Min_cycle;Max_cycle;Signal;HPM_P1;HPM_P2
2022/03/15 00:02:21;;;;;;;10.38;2.67;;;;;;;;;;5082603;28;20037;-58
2022/03/15 00:05:13;;;;;;;4.18;2.15;;;;;;;;;;5100515;28;20428;-58
2022/03/15 00:07:59;;;;;;;9.55;2.47;;;;;;;;;;5103036;28;20455;-58
2022/03/15 00:13:57;;;;;;;3.63;2.17;;;;;;;;;;5094214;28;20035;-58
2022/03/15 00:19:30;;;;;;;2.90;2.10;;;;;;;;;;5104069;28;20088;-58
2022/03/15 00:22:13;;;;;;;5.35;2.28;;;;;;;;;;5104331;28;20032;-58
2022/03/15 00:24:42;;;;;;;5.50;2.67;;;;;;;;;;5097519;28;20061;-58
2022/03/15 00:27:34;;;;;;;7.95;2.80;;;;;;;;;;5106752;28;20032;-58
2022/03/15 00:30:15;;;;;;;;;;;;;;;;;;;;;
2022/03/15 00:33:13;;;;;;;3.53;2.03;;;;;;;;;;5055749;28;20115;-58
2022/03/15 00:39:29;;;;;;;4.70;2.33;;;;;;;;;;5107490;28;20028;-58
2022/03/15 00:42:25;;;;;;;3.05;2.50;;;;;;;;;;5108037;28;20419;-58
2022/03/15 00:45:04;;;;;;;3.88;1.80;;;;;;;;;;5069485;28;20036;-58
2022/03/15 00:48:05;;;;;;;3.80;2.40;;;;;;;;;;5064950;28;20037;-58
2022/03/15 00:51:06;;;;;;;4.35;2.63;;;;;;;;;;5054164;28;20155;-58
2022/03/15 00:53:45;;;;;;;4.90;2.47;;;;;;;;;;5064754;28;20021;-58
2022/03/15 00:56:34;;;;;;;3.10;2.13;;;;;;;;;;5047978;28;20045;-58
2022/03/15 00:59:25;;;;;;;4.22;2.63;;;;;;;;;;5059840;28;20033;-58
2022/03/15 01:02:03;;;;;;;4.40;2.28;;;;;;;;;;5004953;28;20034;-58
2022/03/15 01:08:20;;;;;;;7.30;2.53;;;;;;;;;;5026262;28;20080;-58
2022/03/15 01:17:22;;;;;;;1.90;1.38;;;;;;;;;;5065072;28;20411;-58
2022/03/15 01:22:59;;;;;;;2.95;1.65;;;;;;;;;;5107180;28;20036;-58
2022/03/15 01:28:58;;;;;;;3.83;2.28;;;;;;;;;;5069103;28;20071;-58
2022/03/15 01:37:55;;;;;;;3.28;1.77;;;;;;;;;;5078201;28;20056;-58
2022/03/15 01:46:34;;;;;;;3.22;1.85;;;;;;;;;;5083950;28;20046;-58
2022/03/15 01:49:18;;;;;;;4.00;1.55;;;;;;;;;;5067796;28;20101;-58
2022/03/15 01:51:53;;;;;;;4.97;2.05;;;;;;;;;;5105777;28;20059;-58
2022/03/15 01:58:32;;;;;;;;;;;;;;;;;;;;;
2022/03/15 02:04:10;;;;;;;2.85;1.70;;;;;;;;;;5099998;28;20392;-58
2022/03/15 02:06:54;;;;;;;;;;;;;;;;;;;;;
2022/03/15 02:09:29;;;;;;;4.65;2.20;;;;;;;;;;5105746;28;20092;-58
2022/03/15 02:12:15;;;;;;;6.45;2.67;;;;;;;;;;5106512;28;20066;-59
2022/03/15 02:14:53;;;;;;;6.28;2.10;;;;;;;;;;5103282;28;20046;-58
2022/03/15 02:17:40;;;;;;;5.75;1.95;;;;;;;;;;5105957;28;20024;-58
2022/03/15 02:23:30;;;;;;;6.07;2.25;;;;;;;;;;5094664;28;20054;-58
2022/03/15 02:26:13;;;;;;;;;;;;;;;;;;;;;
2022/03/15 02:28:58;;;;;;;3.70;1.75;;;;;;;;;;5101712;28;20088;-58
2022/03/15 02:34:58;;;;;;;2.67;1.90;;;;;;;;;;5080151;28;20096;-58
2022/03/15 02:41:01;;;;;;;6.43;2.22;;;;;;;;;;5044591;28;20089;-58
2022/03/15 02:52:51;;;;;;;;;;;;;;;;;;;;;
2022/03/15 02:58:51;;;;;;;;;;;;;;;;;;;;;
2022/03/15 03:01:47;;;;;;;8.90;2.20;;;;;;;;;;4985470;28;20106;-58
2022/03/15 03:04:39;;;;;;;2.35;1.48;;;;;;;;;;5102817;28;20501;-58
2022/03/15 03:07:36;;;;;;;4.93;1.80;;;;;;;;;;5106259;28;20054;-58
2022/03/15 03:10:12;;;;;;;5.20;2.03;;;;;;;;;;5106950;28;20035;-58
2022/03/15 03:13:26;;;;;;;9.25;2.17;;;;;;;;;;5105868;28;20035;-58
2022/03/15 03:16:07;;;;;;;4.38;2.53;;;;;;;;;;5099009;28;20043;-58
2022/03/15 03:19:08;;;;;;;6.32;2.63;;;;;;;;;;5103316;28;20038;-58
2022/03/15 03:21:43;;;;;;;;;;;;;;;;;;5097299;28;20482;-58
2022/03/15 03:25:04;;;;;;;;;;;;;;;;;;;;;
2022/03/15 03:31:18;;;;;;;3.95;1.70;;;;;;;;;;5074208;28;20031;-58
2022/03/15 03:34:21;;;;;;;;;;;;;;;;;;;;;
2022/03/15 03:42:54;;;;;;;4.30;2.33;;;;;;;;;;5104807;28;20111;-58
2022/03/15 03:45:39;;;;;;;4.43;1.98;;;;;;;;;;5081346;28;20056;-58
2022/03/15 03:48:40;;;;;;;4.90;2.42;;;;;;;;;;5082187;28;20037;-58
2022/03/15 03:51:43;;;;;;;3.85;2.03;;;;;;;;;;5101708;28;20051;-58
2022/03/15 03:54:18;;;;;;;4.82;1.95;;;;;;;;;;5100329;28;20101;-58
2022/03/15 03:57:03;;;;;;;3.03;2.05;;;;;;;;;;5103714;28;20024;-59
2022/03/15 04:02:53;;;;;;;3.13;1.98;;;;;;;;;;5082855;28;20411;-58
2022/03/15 04:09:11;;;;;;;9.57;3.15;;;;;;;;;;5110177;28;20093;-58
2022/03/15 04:15:10;;;;;;;3.88;1.75;;;;;;;;;;5047704;28;20137;-58
2022/03/15 04:18:14;;;;;;;2.45;2.08;;;;;;;;;;5031228;28;20033;-58
2022/03/15 04:20:55;;;;;;;6.65;1.95;;;;;;;;;;4975488;28;20053;-58
2022/03/15 04:23:43;;;;;;;5.95;2.10;;;;;;;;;;5047629;28;20193;-58
2022/03/15 04:26:34;;;;;;;4.30;2.05;;;;;;;;;;5047217;28;20029;-58
2022/03/15 04:29:21;;;;;;;;;;;;;;;;;;;;;
2022/03/15 04:41:41;;;;;;;5.53;1.88;;;;;;;;;;5037633;28;20033;-58
2022/03/15 04:44:33;;;;;;;5.95;2.00;;;;;;;;;;5037581;28;20454;-58
2022/03/15 04:47:19;;;;;;;4.18;2.10;;;;;;;;;;5038222;28;20040;-58
2022/03/15 04:49:56;;;;;;;3.10;1.85;;;;;;;;;;5007139;28;20037;-58
2022/03/15 04:52:41;;;;;;;3.60;1.92;;;;;;;;;;5040039;28;20059;-58
2022/03/15 04:55:42;;;;;;;3.58;1.60;;;;;;;;;;5058109;28;20048;-58
2022/03/15 05:01:19;;;;;;;2.80;1.60;;;;;;;;;;5058192;28;20025;-58
2022/03/15 05:03:54;;;;;;;4.00;1.67;;;;;;;;;;5057739;28;20057;-58
2022/03/15 05:06:51;;;;;;;3.97;2.45;;;;;;;;;;5038256;28;20587;-58
2022/03/15 05:12:47;;;;;;;;;;;;;;;;;;;;;
2022/03/15 05:15:37;;;;;;;5.78;2.05;;;;;;;;;;5043767;28;20087;-58
2022/03/15 05:21:21;;;;;;;2.80;1.92;;;;;;;;;;5054684;28;20029;-58
2022/03/15 05:24:10;;;;;;;6.32;3.00;;;;;;;;;;5054496;28;20538;-58
2022/03/15 05:26:41;;;;;;;3.08;2.00;;;;;;;;;;5028601;28;20044;-59
2022/03/15 05:29:19;;;;;;;2.92;2.30;;;;;;;;;;5054870;28;20108;-58
2022/03/15 05:31:51;;;;;;;7.60;2.80;;;;;;;;;;5055021;28;20033;-58
2022/03/15 05:34:33;;;;;;;5.90;2.22;;;;;;;;;;5054663;28;20025;-59
2022/03/15 05:40:37;;;;;;;;;;;;;;;;;;;;;
2022/03/15 05:46:33;;;;;;;4.50;3.40;;;;;;;;;;5076934;28;20397;-61
2022/03/15 05:49:16;;;;;;;6.50;2.65;;;;;;;;;;5077498;28;20025;-60
2022/03/15 05:51:53;;;;;;;4.75;2.55;;;;;;;;;;5064919;28;20048;-60
2022/03/15 05:54:42;;;;;;;6.75;3.63;;;;;;;;;;5096071;28;20040;-60
2022/03/15 05:57:42;;;;;;;8.07;3.70;;;;;;;;;;5095597;28;20477;-60
2022/03/15 06:00:12;;;;;;;;;;;;;;;;;;5089714;28;20090;-60
2022/03/15 06:02:52;;;;;;;8.13;2.67;;;;;;;;;;5094517;28;20338;-60
2022/03/15 06:06:09;;;;;;;7.68;4.03;;;;;;;;;;5095133;28;20028;-60
2022/03/15 06:09:03;;;;;;;4.10;2.72;;;;;;;;;;5096118;28;20121;-58
2022/03/15 06:14:38;;;;;;;3.50;2.50;;;;;;;;;;5095829;28;20487;-59
2022/03/15 06:17:23;;;;;;;5.28;2.83;;;;;;;;;;5101668;28;20478;-59
2022/03/15 06:19:55;;;;;;;7.13;3.05;;;;;;;;;;5096339;28;20028;-59
2022/03/15 06:22:59;;;;;;;4.95;3.10;;;;;;;;;;5094566;28;20062;-59
2022/03/15 06:25:52;;;;;;;13.57;3.90;;;;;;;;;;5096070;28;20035;-59
2022/03/15 06:28:52;;;;;;;3.83;2.47;;;;;;;;;;5095512;28;20438;-59
2022/03/15 06:31:36;;;;;;;13.65;3.50;;;;;;;;;;5096263;28;20054;-59
2022/03/15 06:37:43;;;;;;;5.88;3.20;;;;;;;;;;5087109;28;20036;-59
2022/03/15 06:40:24;;;;;;;7.75;2.88;;;;;;;;;;5087729;28;20025;-59
2022/03/15 06:42:53;;;;;;;7.07;3.33;;;;;;;;;;5083383;28;20461;-59
2022/03/15 06:45:56;;;;;;;5.97;3.38;;;;;;;;;;5093298;28;20073;-59
2022/03/15 06:48:55;;;;;;;6.72;4.03;;;;;;;;;;5094796;28;20452;-59
2022/03/15 06:51:43;;;;;;;7.30;3.80;;;;;;;;;;5091375;28;20028;-59
2022/03/15 06:57:25;;;;;;;5.38;3.30;;;;;;;;;;5095244;28;20085;-59
2022/03/15 07:00:07;;;;;;;4.30;2.58;;;;;;;;;;5094443;28;20032;-59
2022/03/15 07:02:54;;;;;;;6.60;3.45;;;;;;;;;;5095195;28;20024;-59
2022/03/15 07:05:39;;;;;;;7.13;4.35;;;;;;;;;;5093184;28;20478;-59
2022/03/15 07:08:42;;;;;;;9.13;3.85;;;;;;;;;;5094921;28;20074;-59
2022/03/15 07:11:38;;;;;;;9.77;5.55;;;;;;;;;;5091428;28;20470;-59
2022/03/15 07:14:27;;;;;;;;;;;;;;;;;;;;;
2022/03/15 07:16:53;;;;;;;5.15;3.15;;;;;;;;;;5082505;28;20039;-59
2022/03/15 07:22:32;;;;;;;9.25;4.20;;;;;;;;;;5095050;28;20098;-59
2022/03/15 07:25:23;;;;;;;7.47;3.72;;;;;;;;;;5095907;28;20050;-59
2022/03/15 07:28:07;;;;;;;;;;;;;;;;;;5096132;28;20056;-59
2022/03/15 07:30:51;;;;;;;6.75;3.80;;;;;;;;;;5094918;28;19911;-59
2022/03/15 07:33:46;;;;;;;4.78;3.00;;;;;;;;;;5095141;28;20038;-59
2022/03/15 07:36:45;;;;;;;;;;;;;;;;;;;;;
2022/03/15 07:39:50;;;;;;;;;;;;;;;;;;;;;
2022/03/15 07:42:39;;;;;;;5.93;3.47;;;;;;;;;;5095600;28;20513;-59
2022/03/15 07:45:25;;;;;;;10.23;4.50;;;;;;;;;;5095747;28;20032;-59
2022/03/15 07:48:23;;;;;;;;;;;;;;;;;;;;;
2022/03/15 07:50:52;;;;;;;4.82;3.92;;;;;;;;;;5094831;28;20091;-59
2022/03/15 07:56:26;;;;;;;4.95;3.67;;;;;;;;;;5095105;28;20124;-59
2022/03/15 07:59:05;;;;;;;4.95;3.38;;;;;;;;;;5094569;28;20040;-59
2022/03/15 08:01:58;;;;;;;;;;;;;;;;;;;;;
2022/03/15 08:04:45;;;;;;;9.07;3.45;;;;;;;;;;5092530;28;20127;-59
2022/03/15 08:07:46;;;;;;;8.00;3.70;;;;;;;;;;5092959;28;20101;-59
2022/03/15 08:10:30;;;;;;;6.50;3.83;;;;;;;;;;5094356;28;20039;-59
2022/03/15 08:13:22;;;;;;;4.05;3.33;;;;;;;;;;5091848;28;20040;-59
2022/03/15 08:19:01;;;;;;;4.05;3.30;;;;;;;;;;5093902;28;20158;-59
2022/03/15 08:21:43;;;;;;;5.80;2.88;;;;;;;;;;5094153;28;20060;-59
2022/03/15 08:24:47;;;;;;;4.30;3.25;;;;;;;;;;5091974;28;20034;-59
2022/03/15 08:27:34;;;;;;;6.63;3.63;;;;;;;;;;5092746;28;20051;-59
2022/03/15 08:30:23;;;;;;;3.65;2.92;;;;;;;;;;5092065;28;20043;-59
2022/03/15 08:33:26;;;;;;;6.88;3.58;;;;;;;;;;5094738;28;20016;-59
2022/03/15 08:36:12;;;;;;;4.05;2.92;;;;;;;;;;5092540;28;20024;-59
2022/03/15 08:38:50;;;;;;;7.32;3.42;;;;;;;;;;5099102;28;20016;-59
2022/03/15 08:44:37;;;;;;;5.25;2.67;;;;;;;;;;5031326;28;20072;-59
2022/03/15 08:50:13;;;;;;;;;;;;;;;;;;;;;
2022/03/15 08:56:29;;;;;;;7.80;3.42;;;;;;;;;;5035421;28;20522;-59
2022/03/15 08:59:20;;;;;;;5.15;3.20;;;;;;;;;;5067401;28;20557;-59
2022/03/15 09:07:39;;;;;;;6.35;3.45;;;;;;;;;;5034191;28;20040;-59
2022/03/15 09:10:13;;;;;;;4.88;3.05;;;;;;;;;;5099642;28;20028;-59
2022/03/15 09:16:18;;;;;;;5.50;2.80;;;;;;;;;;5065531;28;20119;-59
2022/03/15 09:18:58;;;;;;;;;;;;;;;;;;;;;
2022/03/15 09:22:08;;;;;;;5.13;3.13;;;;;;;;;;5045079;28;20028;-59
2022/03/15 09:24:58;;;;;;;4.20;2.92;;;;;;;;;;5074884;28;20263;-59
2022/03/15 09:27:47;;;;;;;4.75;3.30;;;;;;;;;;5075231;28;20043;-59
2022/03/15 09:30:42;;;;;;;5.28;2.10;;;;;;;;;;5076216;28;20020;-59
2022/03/15 09:33:23;;;;;;;4.90;2.00;;;;;;;;;;5053020;28;20028;-59
2022/03/15 09:39:13;;;;;;;3.60;2.67;;;;;;;;;;5074617;28;20067;-59
2022/03/15 09:42:04;;;;;;;4.82;2.85;;;;;;;;;;5044604;28;20433;-59
2022/03/15 09:45:11;;;;;;;7.10;2.65;;;;;;;;;;5067901;28;20036;-59
2022/03/15 09:47:47;;;;;;;2.33;1.40;;;;;;;;;;5032098;28;20048;-59
2022/03/15 09:50:24;;;;;;;2.75;1.73;;;;;;;;;;5095856;28;20110;-59
2022/03/15 09:53:31;;;;;;;3.45;2.15;;;;;;;;;;5095194;28;20523;-59
2022/03/15 10:05:24;;;;;;;3.67;1.90;;;;;;;;;;5076435;28;20066;-59
2022/03/15 10:08:31;;;;;;;2.97;2.28;;;;;;;;;;5094492;28;20036;-59
2022/03/15 10:11:19;;;;;;;;;;;;;;;;;;;;;
2022/03/15 10:14:03;;;;;;;6.95;3.10;;;;;;;;;;5092885;28;20122;-59
2022/03/15 10:17:01;;;;;;;3.33;2.30;;;;;;;;;;5096328;28;20028;-59
2022/03/15 10:19:58;;;;;;;;;;;;;;;;;;;;;
2022/03/15 10:23:35;;;;;;;8.45;2.90;;;;;;;;;;5044129;28;20042;-59
2022/03/15 10:29:13;;;;;;;7.15;3.33;;;;;;;;;;5082641;28;20043;-59
2022/03/15 10:31:39;;;;;;;4.85;3.38;;;;;;;;;;5074030;28;20036;-59
2022/03/15 10:37:11;;;;;;;3.72;2.70;;;;;;;;;;5089993;28;20345;-59
2022/03/15 10:40:02;;;;;;;6.38;3.42;;;;;;;;;;5095528;28;20381;-59
2022/03/15 10:43:09;;;;;;;4.82;3.00;;;;;;;;;;5096280;28;20024;-59
2022/03/15 10:48:55;;;;;;;5.78;3.25;;;;;;;;;;5096168;28;20047;-59
2022/03/15 10:51:56;;;;;;;7.43;3.47;;;;;;;;;;5094611;28;20036;-59
2022/03/15 10:54:40;;;;;;;5.78;2.85;;;;;;;;;;5071222;28;20052;-59
2022/03/15 11:00:31;;;;;;;6.75;3.40;;;;;;;;;;5075205;28;20036;-59
2022/03/15 11:09:49;;;;;;;6.32;4.15;;;;;;;;;;5095090;28;20048;-59
2022/03/15 11:15:28;;;;;;;6.07;3.90;;;;;;;;;;5096081;28;20423;-59
2022/03/15 11:18:13;;;;;;;7.10;4.05;;;;;;;;;;5087943;28;20059;-59
2022/03/15 11:21:19;;;;;;;3.78;3.10;;;;;;;;;;5092906;28;20029;-59
2022/03/15 11:23:54;;;;;;;5.53;3.92;;;;;;;;;;5056626;28;20549;-59
2022/03/15 11:26:44;;;;;;;6.80;4.22;;;;;;;;;;5093617;28;20054;-59
2022/03/15 11:32:57;;;;;;;4.63;4.10;;;;;;;;;;5031782;28;20068;-59
2022/03/15 11:35:51;;;;;;;6.55;5.10;;;;;;;;;;5032236;28;20029;-59
2022/03/15 11:38:43;;;;;;;5.22;4.05;;;;;;;;;;5032531;28;20049;-59
2022/03/15 11:41:52;;;;;;;5.18;4.50;;;;;;;;;;5039010;28;20410;-59
2022/03/15 11:47:48;;;;;;;5.30;4.03;;;;;;;;;;5094075;28;20383;-59
2022/03/15 11:51:09;;;;;;;6.25;4.75;;;;;;;;;;5094630;28;20037;-59
2022/03/15 11:54:26;;;;;;;10.48;5.07;;;;;;;;;;5071528;28;20024;-59
2022/03/15 11:57:21;;;;;;;;;;;;;;;;;;;;;
2022/03/15 12:00:01;;;;;;;8.02;5.68;;;;;;;;;;5052800;28;20390;-59
2022/03/15 12:05:58;;;;;;;6.93;5.38;;;;;;;;;;5052085;28;20306;-59
2022/03/15 12:08:39;;;;;;;8.48;6.18;;;;;;;;;;5035575;28;20171;-59
2022/03/15 12:11:50;;;;;;;6.47;5.80;;;;;;;;;;5058740;28;20047;-59
2022/03/15 12:18:28;;;;;;;;;;;;;;;;;;;;;
2022/03/15 12:24:29;;;;;;;7.72;5.80;;;;;;;;;;5016439;28;20068;-59
2022/03/15 12:27:36;;;;;;;;;;;;;;;;;;;;;
2022/03/15 12:31:25;;;;;;;8.95;5.65;;;;;;;;;;5046471;28;20032;-59
2022/03/15 12:36:55;;;;;;;6.97;5.90;;;;;;;;;;5055693;28;20037;-59
2022/03/15 12:42:25;;;;;;;6.68;5.50;;;;;;;;;;5048403;28;20460;-59
2022/03/15 12:45:06;;;;;;;6.30;5.38;;;;;;;;;;5038778;28;20022;-59
2022/03/15 12:50:43;;;;;;;6.93;5.30;;;;;;;;;;5041948;28;20048;-59
2022/03/15 12:53:51;;;;;;;7.25;5.63;;;;;;;;;;5055878;28;20075;-59
2022/03/15 12:56:27;;;;;;;9.23;5.05;;;;;;;;;;5055326;28;20513;-59
2022/03/15 12:59:10;;;;;;;6.35;5.38;;;;;;;;;;5055751;28;20403;-59
2022/03/15 13:01:41;;;;;;;5.30;4.57;;;;;;;;;;5056038;28;20475;-59
2022/03/15 13:07:28;;;;;;;6.40;4.90;;;;;;;;;;5011796;28;20205;-59
2022/03/15 13:10:13;;;;;;;8.60;5.47;;;;;;;;;;5038885;28;20602;-59
2022/03/15 13:13:02;;;;;;;6.28;5.68;;;;;;;;;;5038186;28;20025;-60
2022/03/15 13:15:58;;;;;;;7.95;4.93;;;;;;;;;;5054632;28;20032;-59
2022/03/15 13:22:00;;;;;;;7.60;5.57;;;;;;;;;;5034446;28;20061;-59
2022/03/15 13:25:04;;;;;;;7.30;5.53;;;;;;;;;;5034131;28;20044;-59
2022/03/15 13:27:56;;;;;;;6.97;5.28;;;;;;;;;;5012740;28;20451;-59
2022/03/15 13:30:29;;;;;;;7.90;6.25;;;;;;;;;;5033524;28;20057;-59
2022/03/15 13:33:04;;;;;;;8.73;5.90;;;;;;;;;;5032717;28;20033;-59
2022/03/15 13:35:44;;;;;;;7.03;6.32;;;;;;;;;;5034513;28;20536;-59
2022/03/15 13:41:25;;;;;;;8.18;6.78;;;;;;;;;;5029219;28;20422;-59
2022/03/15 13:44:21;;;;;;;10.38;7.43;;;;;;;;;;5053793;28;20032;-59
2022/03/15 13:47:15;;;;;;;13.88;7.50;;;;;;;;;;5094399;28;20051;-59
2022/03/15 13:53:10;;;;;;;6.63;5.63;;;;;;;;;;5087784;28;20509;-59
2022/03/15 13:56:06;;;;;;;;;;;;;;;;;;;;;
2022/03/15 13:58:47;;;;;;;10.98;5.93;;;;;;;;;;5091828;28;20044;-59
2022/03/15 14:05:08;;;;;;;7.70;5.20;;;;;;;;;;5071985;28;20154;-59
2022/03/15 14:07:40;;;;;;;8.02;5.90;;;;;;;;;;5090636;28;20458;-59
2022/03/15 14:10:30;;;;;;;;;;;;;;;;;;;;;
2022/03/15 14:13:17;;;;;;;8.95;5.70;;;;;;;;;;5095877;28;20499;-59
2022/03/15 14:19:00;;;;;;;6.90;5.65;;;;;;;;;;5092425;28;20172;-59
2022/03/15 14:25:00;;;;;;;5.13;4.65;;;;;;;;;;5072663;28;20028;-59
2022/03/15 14:27:39;;;;;;;8.20;5.72;;;;;;;;;;5069149;28;20039;-59
2022/03/15 14:33:52;;;;;;;;;;;;;;;;;;;;;
2022/03/15 14:36:21;;;;;;;;;;;;;;;;;;5093429;28;20024;-59
2022/03/15 14:39:19;;;;;;;6.30;4.45;;;;;;;;;;5093181;28;19946;-59
2022/03/15 14:45:12;;;;;;;9.48;5.05;;;;;;;;;;5094019;28;20039;-59
2022/03/15 14:47:42;;;;;;;8.40;5.90;;;;;;;;;;5088803;28;20118;-59
2022/03/15 14:50:22;;;;;;;6.07;4.40;;;;;;;;;;5094023;28;20367;-59
2022/03/15 14:55:52;;;;;;;7.22;4.57;;;;;;;;;;5090159;28;20038;-59
2022/03/15 14:58:49;;;;;;;6.80;4.45;;;;;;;;;;5092094;28;20429;-59
2022/03/15 15:01:48;;;;;;;5.45;3.92;;;;;;;;;;5088610;28;20028;-59
2022/03/15 15:04:33;;;;;;;6.68;3.80;;;;;;;;;;5085369;28;20039;-59
2022/03/15 15:10:24;;;;;;;7.28;5.47;;;;;;;;;;5092169;28;20111;-59
2022/03/15 15:13:07;;;;;;;5.07;4.10;;;;;;;;;;5095379;28;20030;-59
2022/03/15 15:19:00;;;;;;;5.40;4.28;;;;;;;;;;5057600;28;20502;-60
2022/03/15 15:21:43;;;;;;;7.55;4.35;;;;;;;;;;5094540;28;20032;-59
2022/03/15 15:24:59;;;;;;;7.88;4.70;;;;;;;;;;5081508;28;20500;-59
2022/03/15 15:27:47;;;;;;;4.78;4.20;;;;;;;;;;5093612;28;20476;-60
2022/03/15 15:33:16;;;;;;;4.70;3.70;;;;;;;;;;5095441;28;20469;-59
2022/03/15 15:36:02;;;;;;;3.45;3.13;;;;;;;;;;5097394;28;20097;-59
2022/03/15 15:38:40;;;;;;;4.03;3.22;;;;;;;;;;5086098;28;20054;-60
2022/03/15 15:44:27;;;;;;;;;;;;;;;;;;;;;
2022/03/15 15:47:27;;;;;;;8.38;3.25;;;;;;;;;;5094890;28;20036;-59
2022/03/15 15:50:09;;;;;;;;;;;;;;;;;;;;;
2022/03/15 15:56:19;;;;;;;;;;;;;;;;;;;;;
2022/03/15 15:59:09;;;;;;;4.63;3.13;;;;;;;;;;5093407;28;20381;-59
2022/03/15 16:01:44;;;;;;;3.72;2.67;;;;;;;;;;5092541;28;20032;-59
2022/03/15 16:04:39;;;;;;;4.00;2.15;;;;;;;;;;5094680;28;20113;-59
2022/03/15 16:07:33;;;;;;;4.88;2.40;;;;;;;;;;5094229;28;20124;-59
2022/03/15 16:10:22;;;;;;;5.78;3.58;;;;;;;;;;5093704;28;20462;-59
2022/03/15 16:12:57;;;;;;;3.47;2.33;;;;;;;;;;5086654;28;20478;-59
2022/03/15 16:15:43;;;;;;;3.47;2.42;;;;;;;;;;5093866;28;20032;-59
2022/03/15 16:19:11;;;;;;;;;;;;;;;;;;;;;
2022/03/15 16:21:17;;;;;;;12.07;2.95;;;;;;;;;;5080753;28;20097;-60
2022/03/15 16:24:02;;;;;;;4.63;2.30;;;;;;;;;;5092048;28;20413;-60
2022/03/15 16:27:03;;;;;;;;;;;;;;;;;;;;;
2022/03/15 16:32:50;;;;;;;5.97;3.20;;;;;;;;;;5093952;28;20051;-59
2022/03/15 16:35:34;;;;;;;4.70;3.28;;;;;;;;;;5091757;28;20466;-60
2022/03/15 16:38:36;;;;;;;;;;;;;;;;;;;;;
2022/03/15 16:41:34;;;;;;;9.70;5.10;;;;;;;;;;5078104;28;20040;-59
2022/03/15 16:53:23;;;;;;;;;;;;;;;;;;;;;
2022/03/15 16:56:03;;;;;;;8.98;3.75;;;;;;;;;;5091929;28;20020;-59
2022/03/15 17:02:16;;;;;;;3.85;2.80;;;;;;;;;;5051314;28;20032;-59
2022/03/15 17:08:28;;;;;;;;;;;;;;;;;;;;;
2022/03/15 17:14:32;;;;;;;5.93;3.00;;;;;;;;;;5052234;28;20039;-60
2022/03/15 17:17:19;;;;;;;4.15;3.00;;;;;;;;;;5058137;28;20029;-59
2022/03/15 17:26:39;;;;;;;;;;;;;;;;;;;;;
2022/03/15 17:29:30;;;;;;;5.05;3.60;;;;;;;;;;5050772;28;20054;-59
2022/03/15 17:32:17;;;;;;;10.02;3.78;;;;;;;;;;5097700;28;20043;-59
2022/03/15 17:38:04;;;;;;;6.97;4.07;;;;;;;;;;5097733;28;20042;-60
2022/03/15 17:43:41;;;;;;;10.48;4.95;;;;;;;;;;5088412;28;20315;-59
2022/03/15 17:46:22;;;;;;;7.90;4.60;;;;;;;;;;5096038;28;20023;-60
2022/03/15 17:51:57;;;;;;;8.03;4.57;;;;;;;;;;5096562;28;20059;-59
2022/03/15 17:54:49;;;;;;;6.13;4.93;;;;;;;;;;5094380;28;20258;-59
2022/03/15 18:04:10;;;;;;;7.22;5.47;;;;;;;;;;5095501;28;20032;-59
2022/03/15 18:10:46;;;;;;;8.52;5.57;;;;;;;;;;5066465;28;20028;-59
2022/03/15 18:15:50;;;;;;;8.57;5.18;;;;;;;;;;5096228;28;20537;-60
2022/03/15 18:18:28;;;;;;;14.75;6.03;;;;;;;;;;5077916;28;20032;-59
2022/03/15 18:21:14;;;;;;;7.90;5.78;;;;;;;;;;5096704;28;20099;-60
2022/03/15 18:24:25;;;;;;;5.85;5.07;;;;;;;;;;5061762;28;20047;-59
2022/03/15 18:27:24;;;;;;;9.10;6.57;;;;;;;;;;5096040;28;20516;-60
2022/03/15 18:33:05;;;;;;;11.52;7.78;;;;;;;;;;5095729;28;20051;-60
2022/03/15 18:36:07;;;;;;;9.63;6.93;;;;;;;;;;5095775;28;20047;-59
2022/03/15 18:39:02;;;;;;;10.82;7.40;;;;;;;;;;5095251;28;20031;-60
2022/03/15 18:41:54;;;;;;;8.70;7.20;;;;;;;;;;5095963;28;20024;-60
2022/03/15 18:44:55;;;;;;;10.18;5.63;;;;;;;;;;5095228;28;20035;-59
2022/03/15 18:50:47;;;;;;;8.10;6.22;;;;;;;;;;5060724;28;20035;-60
2022/03/15 18:53:45;;;;;;;;;;;;;;;;;;;;;
2022/03/15 18:56:23;;;;;;;6.53;5.88;;;;;;;;;;5089664;28;20024;-60
2022/03/15 19:02:00;;;;;;;;;;;;;;;;;;5094787;28;20036;-59
2022/03/15 19:07:43;;;;;;;10.75;6.53;;;;;;;;;;5094641;28;20043;-59
2022/03/15 19:16:19;;;;;;;7.45;5.88;;;;;;;;;;5091984;28;20028;-59
2022/03/15 19:25:15;;;;;;;8.20;7.03;;;;;;;;;;5095135;28;20115;-59
2022/03/15 19:28:00;;;;;;;12.38;8.57;;;;;;;;;;5094893;28;20044;-59
2022/03/15 19:30:32;;;;;;;12.70;8.00;;;;;;;;;;5095395;28;20335;-59
2022/03/15 19:33:34;;;;;;;10.48;7.30;;;;;;;;;;5071433;28;20416;-59
2022/03/15 19:36:52;;;;;;;11.13;9.18;;;;;;;;;;5051616;28;20085;-59
2022/03/15 19:42:08;;;;;;;9.55;8.00;;;;;;;;;;5094932;28;20027;-59
2022/03/15 19:44:57;;;;;;;8.00;5.95;;;;;;;;;;5056290;28;20032;-59
2022/03/15 19:47:52;;;;;;;12.73;7.15;;;;;;;;;;5087605;28;20402;-59
2022/03/15 20:03:39;;;;;;;8.98;6.63;;;;;;;;;;5012397;28;20057;-59
2022/03/15 20:07:06;;;;;;;;;;;;;;;;;;;;;
2022/03/15 20:10:08;;;;;;;;;;;;;;;;;;;;;
2022/03/15 20:12:51;;;;;;;;;;;;;;;;;;;;;
2022/03/15 20:15:40;;;;;;;10.77;8.75;;;;;;;;;;5070904;28;20258;-59
2022/03/15 20:18:37;;;;;;;10.45;9.05;;;;;;;;;;5078477;28;20462;-59
2022/03/15 20:24:47;;;;;;;9.60;8.60;;;;;;;;;;5011676;28;20068;-60
2022/03/15 20:27:26;;;;;;;12.38;10.50;;;;;;;;;;5011886;28;20081;-59
2022/03/15 20:33:26;;;;;;;13.48;11.98;;;;;;;;;;5016160;28;20029;-59
2022/03/15 20:36:15;;;;;;;14.52;12.55;;;;;;;;;;5072227;28;20055;-60
2022/03/15 20:39:10;;;;;;;14.88;12.73;;;;;;;;;;5056078;28;20462;-59
2022/03/15 20:42:09;;;;;;;;;;;;;;;;;;;;;
2022/03/15 20:44:41;;;;;;;15.02;13.05;;;;;;;;;;5077021;28;20032;-59
2022/03/15 20:47:16;;;;;;;13.85;12.45;;;;;;;;;;5077947;28;20048;-59
2022/03/15 20:50:01;;;;;;;12.13;10.88;;;;;;;;;;5046380;28;20504;-60
2022/03/15 20:53:14;;;;;;;;;;;;;;;;;;;;;
2022/03/15 20:55:28;;;;;;;14.07;12.65;;;;;;;;;;5069873;28;20051;-59
2022/03/15 20:58:19;;;;;;;16.58;13.70;;;;;;;;;;5077714;28;20089;-59
2022/03/15 21:00:49;;;;;;;15.25;12.80;;;;;;;;;;5096889;28;20074;-59
2022/03/15 21:03:23;;;;;;;15.32;13.73;;;;;;;;;;5096198;28;20113;-59
2022/03/15 21:06:36;;;;;;;13.60;11.63;;;;;;;;;;5097133;28;20373;-59
2022/03/15 21:15:42;;;;;;;12.75;10.80;;;;;;;;;;5011793;28;20056;-59
2022/03/15 21:18:22;;;;;;;13.82;12.40;;;;;;;;;;4994950;28;20080;-59
2022/03/15 21:21:16;;;;;;;12.98;11.68;;;;;;;;;;4995854;28;20531;-59
2022/03/15 21:24:11;;;;;;;11.40;10.20;;;;;;;;;;4995958;28;20030;-59
2022/03/15 21:32:59;;;;;;;13.85;10.38;;;;;;;;;;4958136;28;20049;-59
2022/03/15 21:38:57;;;;;;;14.43;11.48;;;;;;;;;;5054109;28;20519;-59
2022/03/15 21:41:32;;;;;;;11.43;10.18;;;;;;;;;;5051440;28;20025;-59
2022/03/15 21:44:06;;;;;;;14.13;12.20;;;;;;;;;;5039765;28;20033;-59
2022/03/15 21:47:05;;;;;;;12.65;10.77;;;;;;;;;;5055963;28;20136;-59
2022/03/15 21:50:01;;;;;;;14.13;12.00;;;;;;;;;;5033462;28;20615;-59
2022/03/15 21:52:33;;;;;;;12.15;10.95;;;;;;;;;;5054013;28;20490;-60
2022/03/15 21:58:35;;;;;;;15.05;12.23;;;;;;;;;;4994942;28;20519;-59
2022/03/15 22:01:14;;;;;;;12.30;11.07;;;;;;;;;;4964465;28;20476;-60
2022/03/15 22:03:53;;;;;;;;;;;;;;;;;;;;;
2022/03/15 22:06:31;;;;;;;14.85;12.60;;;;;;;;;;5038075;28;20102;-59
2022/03/15 22:09:16;;;;;;;13.77;11.95;;;;;;;;;;5046011;28;20049;-59
2022/03/15 22:11:57;;;;;;;12.98;11.38;;;;;;;;;;5040254;28;20064;-59
2022/03/15 22:14:31;;;;;;;13.35;11.77;;;;;;;;;;5046144;28;20038;-60
2022/03/15 22:17:00;;;;;;;12.77;11.40;;;;;;;;;;5038345;28;20044;-59
2022/03/15 22:20:04;;;;;;;;;;;;;;;;;;;;;
2022/03/15 23:24:39;;;;;;;21.55;16.33;;;;;;;;;;5104474;28;20031;-59
2022/03/15 23:27:21;;;;;;;21.33;17.80;;;;;;;;;;5104774;28;20090;-59
2022/03/15 23:33:13;;;;;;;17.00;15.05;;;;;;;;;;5104450;28;20110;-59
2022/03/15 23:36:04;;;;;;;18.73;14.75;;;;;;;;;;5104239;28;20024;-59
2022/03/15 23:42:09;;;;;;;18.45;14.38;;;;;;;;;;5086502;28;20032;-59
2022/03/15 23:48:16;;;;;;;21.60;16.60;;;;;;;;;;5028511;28;20503;-59
2022/03/15 23:50:45;;;;;;;;;;;;;;;;;;5043561;28;20037;-60
2022/03/15 23:53:17;;;;;;;16.25;13.50;;;;;;;;;;5043358;28;19912;-59
2022/03/15 23:56:18;;;;;;;23.45;17.25;;;;;;;;;;5047675;28;20036;-60
2022/03/15 23:59:24;;;;;;;;;;;;;;;;;;;;;
